sensor_id;sensor_type;location;lat;lon;timestamp;noise_LAeq;noise_LA_min;noise_LA_max;noise_LA01;noise_LA95
56745;Laerm;42622;49.972;8.452;2022-07-23T00:00:33;42.81;40.33;45.63;;
56745;Laerm;42622;49.972;8.452;2022-07-23T00:02:59;43.07;41.14;45.63;;
56745;Laerm;42622;49.972;8.452;2022-07-23T00:05:25;42.53;40.53;44.87;;
56745;Laerm;42622;49.972;8.452;2022-07-23T00:07:51;42.97;40.62;48.67;;
56745;Laerm;42622;49.972;8.452;2022-07-23T00:10:17;42.73;40.33;45.46;;
56745;Laerm;42622;49.972;8.452;2022-07-23T00:12:43;42.50;40.53;56.36;;
56745;Laerm;42622;49.972;8.452;2022-07-23T00:15:10;41.93;39.58;46.10;;
56745;Laerm;42622;49.972;8.452;2022-07-23T00:17:36;41.89;39.46;44.23;;
56745;Laerm;42622;49.972;8.452;2022-07-23T00:20:03;42.38;39.92;44.69;;
56745;Laerm;42622;49.972;8.452;2022-07-23T00:22:29;41.71;39.46;44.03;;
56745;Laerm;42622;49.972;8.452;2022-07-23T00:24:56;41.60;38.74;45.72;;
56745;Laerm;42622;49.972;8.452;2022-07-23T00:27:23;41.74;39.21;45.04;;
56745;Laerm;42622;49.972;8.452;2022-07-23T00:29:49;41.39;38.81;43.09;;
56745;Laerm;42622;49.972;8.452;2022-07-23T00:32:15;41.58;39.08;45.01;;
56745;Laerm;42622;49.972;8.452;2022-07-23T00:34:41;42.35;40.03;44.47;;
56745;Laerm;42622;49.972;8.452;2022-07-23T00:37:06;42.33;39.21;43.99;;
56745;Laerm;42622;49.972;8.452;2022-07-23T00:39:32;42.60;39.70;50.48;;
56745;Laerm;42622;49.972;8.452;2022-07-23T00:41:58;42.39;40.13;44.87;;
56745;Laerm;42622;49.972;8.452;2022-07-23T00:46:58;42.44;39.21;45.94;;
56745;Laerm;42622;49.972;8.452;2022-07-23T00:49:29;42.44;39.21;45.94;;
56745;Laerm;42622;49.972;8.452;2022-07-23T00:51:58;43.15;40.80;46.55;;
56745;Laerm;42622;49.972;8.452;2022-07-23T00:54:28;42.51;40.03;44.51;;
56745;Laerm;42622;49.972;8.452;2022-07-23T00:56:54;42.90;40.71;45.66;;
56745;Laerm;42622;49.972;8.452;2022-07-23T00:59:20;42.08;39.92;45.36;;
56745;Laerm;42622;49.972;8.452;2022-07-23T01:04:15;52.86;51.54;54.11;;
56745;Laerm;42622;49.972;8.452;2022-07-23T01:06:43;52.84;51.90;54.61;;
56745;Laerm;42622;49.972;8.452;2022-07-23T01:09:10;53.06;52.03;54.75;;
56745;Laerm;42622;49.972;8.452;2022-07-23T01:11:37;48.96;39.58;58.52;;
56745;Laerm;42622;49.972;8.452;2022-07-23T01:14:18;41.98;39.58;44.23;;
56745;Laerm;42622;49.972;8.452;2022-07-23T01:16:48;42.57;40.33;45.28;;
56745;Laerm;42622;49.972;8.452;2022-07-23T01:19:18;44.68;40.62;54.29;;
56745;Laerm;42622;49.972;8.452;2022-07-23T01:21:51;51.24;45.17;71.32;;
56745;Laerm;42622;49.972;8.452;2022-07-23T01:24:18;53.13;47.36;68.83;;
56745;Laerm;42622;49.972;8.452;2022-07-23T01:26:48;49.06;43.34;62.68;;
56745;Laerm;42622;49.972;8.452;2022-07-23T01:29:16;46.76;42.16;76.51;;
56745;Laerm;42622;49.972;8.452;2022-07-23T01:31:43;44.40;41.48;66.37;;
56745;Laerm;42622;49.972;8.452;2022-07-23T01:34:11;42.62;40.13;53.12;;
56745;Laerm;42622;49.972;8.452;2022-07-23T01:36:38;43.14;40.80;55.18;;
56745;Laerm;42622;49.972;8.452;2022-07-23T01:39:06;42.83;40.62;53.11;;
56745;Laerm;42622;49.972;8.452;2022-07-23T01:41:33;42.42;39.92;54.63;;
56745;Laerm;42622;49.972;8.452;2022-07-23T01:43:59;42.67;39.58;46.87;;
56745;Laerm;42622;49.972;8.452;2022-07-23T01:46:25;42.05;39.34;50.52;;
56745;Laerm;42622;49.972;8.452;2022-07-23T01:48:51;42.26;39.81;52.26;;
56745;Laerm;42622;49.972;8.452;2022-07-23T01:51:17;42.93;40.33;48.49;;
56745;Laerm;42622;49.972;8.452;2022-07-23T01:53:43;43.67;40.98;48.70;;
56745;Laerm;42622;49.972;8.452;2022-07-23T01:56:09;43.05;40.23;50.15;;
56745;Laerm;42622;49.972;8.452;2022-07-23T01:58:35;42.39;40.33;46.71;;
56745;Laerm;42622;49.972;8.452;2022-07-23T02:01:01;50.51;41.38;55.35;;
56745;Laerm;42622;49.972;8.452;2022-07-23T02:03:27;54.00;52.86;56.97;;
56745;Laerm;42622;49.972;8.452;2022-07-23T02:08:18;53.88;52.63;55.57;;
56745;Laerm;42622;49.972;8.452;2022-07-23T02:10:45;53.87;52.65;55.94;;
56745;Laerm;42622;49.972;8.452;2022-07-23T02:13:11;53.96;52.40;55.61;;
56745;Laerm;42622;49.972;8.452;2022-07-23T02:15:37;52.84;42.22;60.85;;
56745;Laerm;42622;49.972;8.452;2022-07-23T02:18:05;46.55;45.17;48.31;;
56745;Laerm;42622;49.972;8.452;2022-07-23T02:20:34;46.83;45.17;48.81;;
56745;Laerm;42622;49.972;8.452;2022-07-23T02:23:10;44.59;42.09;48.48;;
56745;Laerm;42622;49.972;8.452;2022-07-23T02:25:38;45.22;42.16;54.87;;
56745;Laerm;42622;49.972;8.452;2022-07-23T02:28:04;44.60;42.09;50.53;;
56745;Laerm;42622;49.972;8.452;2022-07-23T02:30:30;44.20;41.75;49.28;;
56745;Laerm;42622;49.972;8.452;2022-07-23T02:32:56;43.68;41.96;46.76;;
56745;Laerm;42622;49.972;8.452;2022-07-23T02:35:22;43.27;40.33;55.49;;
56745;Laerm;42622;49.972;8.452;2022-07-23T02:37:47;42.79;40.80;53.13;;
56745;Laerm;42622;49.972;8.452;2022-07-23T02:40:13;43.11;40.80;66.35;;
56745;Laerm;42622;49.972;8.452;2022-07-23T02:42:39;42.70;40.98;45.69;;
56745;Laerm;42622;49.972;8.452;2022-07-23T02:45:06;43.78;40.23;55.85;;
56745;Laerm;42622;49.972;8.452;2022-07-23T02:47:32;53.86;52.76;60.51;;
56745;Laerm;42622;49.972;8.452;2022-07-23T02:49:58;53.81;52.79;55.60;;
56745;Laerm;42622;49.972;8.452;2022-07-23T02:52:24;53.83;52.66;55.88;;
56745;Laerm;42622;49.972;8.452;2022-07-23T02:54:49;53.96;52.81;56.18;;
56745;Laerm;42622;49.972;8.452;2022-07-23T02:57:15;45.95;40.33;56.23;;
56745;Laerm;42622;49.972;8.452;2022-07-23T02:59:41;43.41;39.81;49.15;;
56745;Laerm;42622;49.972;8.452;2022-07-23T03:02:07;43.76;40.53;50.06;;
56745;Laerm;42622;49.972;8.452;2022-07-23T03:04:33;43.97;41.46;50.27;;
56745;Laerm;42622;49.972;8.452;2022-07-23T03:09:24;43.33;41.38;46.50;;
56745;Laerm;42622;49.972;8.452;2022-07-23T03:11:50;43.33;41.38;46.50;;
56745;Laerm;42622;49.972;8.452;2022-07-23T03:14:16;44.10;41.38;51.00;;
56745;Laerm;42622;49.972;8.452;2022-07-23T03:16:42;43.95;40.62;56.46;;
56745;Laerm;42622;49.972;8.452;2022-07-23T03:19:08;43.70;41.22;51.30;;
56745;Laerm;42622;49.972;8.452;2022-07-23T03:21:33;43.20;40.89;49.46;;
56745;Laerm;42622;49.972;8.452;2022-07-23T03:24:01;43.31;41.19;47.12;;
56745;Laerm;42622;49.972;8.452;2022-07-23T03:26:26;43.26;40.80;50.10;;
56745;Laerm;42622;49.972;8.452;2022-07-23T03:28:52;42.89;40.43;59.09;;
56745;Laerm;42622;49.972;8.452;2022-07-23T03:31:18;43.01;40.89;54.55;;
56745;Laerm;42622;49.972;8.452;2022-07-23T03:33:43;43.33;40.80;46.71;;
56745;Laerm;42622;49.972;8.452;2022-07-23T03:36:09;43.45;41.46;45.54;;
56745;Laerm;42622;49.972;8.452;2022-07-23T03:38:35;43.28;41.53;56.53;;
56745;Laerm;42622;49.972;8.452;2022-07-23T03:41:01;43.37;41.53;46.45;;
56745;Laerm;42622;49.972;8.452;2022-07-23T03:43:26;44.28;41.68;50.36;;
56745;Laerm;42622;49.972;8.452;2022-07-23T03:45:52;43.35;40.89;49.50;;
56745;Laerm;42622;49.972;8.452;2022-07-23T03:48:18;42.90;40.33;46.35;;
56745;Laerm;42622;49.972;8.452;2022-07-23T03:50:44;45.52;40.62;67.75;;
56745;Laerm;42622;49.972;8.452;2022-07-23T03:53:09;43.09;41.30;52.67;;
56745;Laerm;42622;49.972;8.452;2022-07-23T03:55:35;42.72;40.62;52.68;;
56745;Laerm;42622;49.972;8.452;2022-07-23T03:58:01;42.92;40.89;46.95;;
56745;Laerm;42622;49.972;8.452;2022-07-23T04:00:27;45.76;40.71;66.80;;
56745;Laerm;42622;49.972;8.452;2022-07-23T04:02:53;46.22;41.89;64.59;;
56745;Laerm;42622;49.972;8.452;2022-07-23T04:05:19;49.50;42.03;68.78;;
56745;Laerm;42622;49.972;8.452;2022-07-23T04:07:45;47.87;42.03;71.33;;
56745;Laerm;42622;49.972;8.452;2022-07-23T04:10:10;47.42;42.22;70.82;;
56745;Laerm;42622;49.972;8.452;2022-07-23T04:12:36;56.66;42.16;78.11;;
56745;Laerm;42622;49.972;8.452;2022-07-23T04:15:02;47.20;42.29;66.55;;
56745;Laerm;42622;49.972;8.452;2022-07-23T04:19:54;51.46;41.82;77.87;;
56745;Laerm;42622;49.972;8.452;2022-07-23T04:22:20;46.88;40.98;65.52;;
56745;Laerm;42622;49.972;8.452;2022-07-23T04:24:45;46.01;41.14;60.07;;
56745;Laerm;42622;49.972;8.452;2022-07-23T04:27:11;49.48;41.30;61.92;;
56745;Laerm;42622;49.972;8.452;2022-07-23T04:29:37;50.64;40.43;64.16;;
56745;Laerm;42622;49.972;8.452;2022-07-23T04:34:30;43.71;40.03;55.63;;
56745;Laerm;42622;49.972;8.452;2022-07-23T04:36:55;42.29;39.21;58.72;;
56745;Laerm;42622;49.972;8.452;2022-07-23T04:39:21;46.57;40.13;59.81;;
56745;Laerm;42622;49.972;8.452;2022-07-23T04:41:48;48.83;40.33;60.78;;
56745;Laerm;42622;49.972;8.452;2022-07-23T04:44:14;46.57;40.62;62.82;;
56745;Laerm;42622;49.972;8.452;2022-07-23T04:46:40;44.38;40.23;57.71;;
56745;Laerm;42622;49.972;8.452;2022-07-23T04:49:05;44.36;40.13;63.46;;
56745;Laerm;42622;49.972;8.452;2022-07-23T04:51:31;44.58;40.89;63.53;;
56745;Laerm;42622;49.972;8.452;2022-07-23T04:53:57;46.68;40.89;70.52;;
56745;Laerm;42622;49.972;8.452;2022-07-23T04:56:23;55.43;41.22;74.99;;
56745;Laerm;42622;49.972;8.452;2022-07-23T04:58:49;50.34;40.80;64.56;;
56745;Laerm;42622;49.972;8.452;2022-07-23T05:03:40;48.74;40.89;68.71;;
56745;Laerm;42622;49.972;8.452;2022-07-23T05:06:06;44.30;40.33;60.10;;
56745;Laerm;42622;49.972;8.452;2022-07-23T05:08:32;45.00;40.33;63.16;;
56745;Laerm;42622;49.972;8.452;2022-07-23T05:10:57;43.90;40.53;60.81;;
56745;Laerm;42622;49.972;8.452;2022-07-23T05:13:23;44.22;40.89;59.54;;
56745;Laerm;42622;49.972;8.452;2022-07-23T05:15:49;43.75;41.38;52.74;;
56745;Laerm;42622;49.972;8.452;2022-07-23T05:18:15;43.80;41.38;54.81;;
56745;Laerm;42622;49.972;8.452;2022-07-23T05:20:41;44.82;40.80;64.20;;
56745;Laerm;42622;49.972;8.452;2022-07-23T05:23:07;43.63;40.89;53.70;;
56745;Laerm;42622;49.972;8.452;2022-07-23T05:25:42;43.24;40.71;51.05;;
56745;Laerm;42622;49.972;8.452;2022-07-23T05:28:08;43.75;40.89;63.36;;
56745;Laerm;42622;49.972;8.452;2022-07-23T05:30:33;44.30;41.53;53.66;;
56745;Laerm;42622;49.972;8.452;2022-07-23T05:32:59;44.43;41.30;60.68;;
56745;Laerm;42622;49.972;8.452;2022-07-23T05:35:27;45.46;41.46;65.00;;
56745;Laerm;42622;49.972;8.452;2022-07-23T05:37:53;43.96;40.80;57.47;;
56745;Laerm;42622;49.972;8.452;2022-07-23T05:40:18;44.43;41.30;55.98;;
56745;Laerm;42622;49.972;8.452;2022-07-23T05:42:44;44.87;41.30;62.43;;
56745;Laerm;42622;49.972;8.452;2022-07-23T05:45:11;43.56;40.98;53.83;;
56745;Laerm;42622;49.972;8.452;2022-07-23T05:47:49;43.41;40.71;52.67;;
56745;Laerm;42622;49.972;8.452;2022-07-23T05:50:16;43.91;41.46;55.53;;
56745;Laerm;42622;49.972;8.452;2022-07-23T05:52:43;43.76;41.46;53.02;;
56745;Laerm;42622;49.972;8.452;2022-07-23T05:55:11;43.89;41.53;46.59;;
56745;Laerm;42622;49.972;8.452;2022-07-23T05:57:38;43.76;41.06;55.19;;
56745;Laerm;42622;49.972;8.452;2022-07-23T06:00:08;43.87;41.61;50.09;;
56745;Laerm;42622;49.972;8.452;2022-07-23T06:02:38;43.21;41.06;45.69;;
56745;Laerm;42622;49.972;8.452;2022-07-23T06:05:06;44.52;41.14;54.55;;
56745;Laerm;42622;49.972;8.452;2022-07-23T06:07:33;43.89;41.68;55.52;;
56745;Laerm;42622;49.972;8.452;2022-07-23T06:09:59;43.43;40.89;48.70;;
56745;Laerm;42622;49.972;8.452;2022-07-23T06:12:25;43.71;41.53;47.03;;
56745;Laerm;42622;49.972;8.452;2022-07-23T06:14:51;43.96;41.38;60.85;;
56745;Laerm;42622;49.972;8.452;2022-07-23T06:17:18;42.91;40.62;52.34;;
56745;Laerm;42622;49.972;8.452;2022-07-23T06:19:44;43.40;41.38;55.36;;
56745;Laerm;42622;49.972;8.452;2022-07-23T06:22:09;45.52;40.43;63.85;;
56745;Laerm;42622;49.972;8.452;2022-07-23T06:24:36;52.39;41.38;77.85;;
56745;Laerm;42622;49.972;8.452;2022-07-23T06:27:01;48.68;41.30;73.63;;
56745;Laerm;42622;49.972;8.452;2022-07-23T06:29:27;46.31;40.80;70.32;;
56745;Laerm;42622;49.972;8.452;2022-07-23T06:31:53;46.31;40.80;70.32;;
56745;Laerm;42622;49.972;8.452;2022-07-23T06:34:18;47.82;39.46;73.05;;
56745;Laerm;42622;49.972;8.452;2022-07-23T06:36:44;45.05;41.75;64.70;;
56745;Laerm;42622;49.972;8.452;2022-07-23T06:39:10;46.39;41.46;71.75;;
56745;Laerm;42622;49.972;8.452;2022-07-23T06:41:36;47.47;41.68;70.91;;
56745;Laerm;42622;49.972;8.452;2022-07-23T06:44:02;47.30;41.46;75.25;;
56745;Laerm;42622;49.972;8.452;2022-07-23T06:46:28;46.78;41.46;68.84;;
56745;Laerm;42622;49.972;8.452;2022-07-23T06:48:54;44.93;41.61;59.94;;
56745;Laerm;42622;49.972;8.452;2022-07-23T06:51:19;44.87;42.09;61.74;;
56745;Laerm;42622;49.972;8.452;2022-07-23T06:56:11;45.72;42.35;60.73;;
56745;Laerm;42622;49.972;8.452;2022-07-23T06:58:37;52.37;41.96;81.85;;
56745;Laerm;42622;49.972;8.452;2022-07-23T07:01:02;46.43;41.89;76.29;;
56745;Laerm;42622;49.972;8.452;2022-07-23T07:03:28;44.71;41.22;67.77;;
56745;Laerm;42622;49.972;8.452;2022-07-23T07:05:54;55.37;42.41;81.04;;
56745;Laerm;42622;49.972;8.452;2022-07-23T07:08:19;46.54;42.22;64.39;;
56745;Laerm;42622;49.972;8.452;2022-07-23T07:10:45;57.27;41.96;73.58;;
56745;Laerm;42622;49.972;8.452;2022-07-23T07:13:13;44.69;42.03;56.92;;
56745;Laerm;42622;49.972;8.452;2022-07-23T07:15:39;45.77;41.75;63.94;;
56745;Laerm;42622;49.972;8.452;2022-07-23T07:18:04;45.06;41.89;57.99;;
56745;Laerm;42622;49.972;8.452;2022-07-23T07:20:30;48.94;41.82;68.41;;
56745;Laerm;42622;49.972;8.452;2022-07-23T07:22:56;46.60;41.53;66.63;;
56745;Laerm;42622;49.972;8.452;2022-07-23T07:25:22;44.28;41.53;60.25;;
56745;Laerm;42622;49.972;8.452;2022-07-23T07:27:48;45.04;41.68;64.45;;
56745;Laerm;42622;49.972;8.452;2022-07-23T07:30:14;44.27;41.68;61.03;;
56745;Laerm;42622;49.972;8.452;2022-07-23T07:32:41;45.36;40.89;69.59;;
56745;Laerm;42622;49.972;8.452;2022-07-23T07:35:07;43.71;41.46;50.98;;
56745;Laerm;42622;49.972;8.452;2022-07-23T07:37:33;43.44;41.14;51.77;;
56745;Laerm;42622;49.972;8.452;2022-07-23T07:39:59;44.94;40.71;56.35;;
56745;Laerm;42622;49.972;8.452;2022-07-23T07:42:25;44.59;41.14;54.61;;
56745;Laerm;42622;49.972;8.452;2022-07-23T07:44:51;43.94;41.46;55.62;;
56745;Laerm;42622;49.972;8.452;2022-07-23T07:47:17;44.65;41.96;60.27;;
56745;Laerm;42622;49.972;8.452;2022-07-23T07:49:43;45.31;39.34;64.46;;
56745;Laerm;42622;49.972;8.452;2022-07-23T07:52:10;47.08;41.68;71.06;;
56745;Laerm;42622;49.972;8.452;2022-07-23T07:54:37;44.42;41.61;60.24;;
56745;Laerm;42622;49.972;8.452;2022-07-23T07:57:03;46.54;41.11;67.40;;
56745;Laerm;42622;49.972;8.452;2022-07-23T07:59:29;43.73;40.54;51.59;;
56745;Laerm;42622;49.972;8.452;2022-07-23T08:01:55;42.75;40.13;51.33;;
56745;Laerm;42622;49.972;8.452;2022-07-23T08:04:20;47.07;40.98;67.54;;
56745;Laerm;42622;49.972;8.452;2022-07-23T08:06:46;44.30;40.71;56.50;;
56745;Laerm;42622;49.972;8.452;2022-07-23T08:09:12;43.96;41.03;60.93;;
56745;Laerm;42622;49.972;8.452;2022-07-23T08:11:37;44.10;40.03;57.15;;
56745;Laerm;42622;49.972;8.452;2022-07-23T08:14:03;47.64;40.98;63.66;;
56745;Laerm;42622;49.972;8.452;2022-07-23T08:16:29;50.63;40.62;59.06;;
56745;Laerm;42622;49.972;8.452;2022-07-23T08:18:55;49.17;42.88;59.07;;
56745;Laerm;42622;49.972;8.452;2022-07-23T08:21:21;49.62;44.62;59.98;;
56745;Laerm;42622;49.972;8.452;2022-07-23T08:23:46;50.30;44.03;59.32;;
56745;Laerm;42622;49.972;8.452;2022-07-23T08:26:12;45.16;40.80;57.35;;
56745;Laerm;42622;49.972;8.452;2022-07-23T08:28:38;45.56;40.89;65.27;;
56745;Laerm;42622;49.972;8.452;2022-07-23T08:31:04;46.33;40.23;67.46;;
56745;Laerm;42622;49.972;8.452;2022-07-23T08:33:31;44.66;40.43;59.84;;
56745;Laerm;42622;49.972;8.452;2022-07-23T08:35:58;45.26;40.23;59.35;;
56745;Laerm;42622;49.972;8.452;2022-07-23T08:38:24;44.16;40.53;58.15;;
56745;Laerm;42622;49.972;8.452;2022-07-23T08:40:56;47.00;40.54;66.72;;
56745;Laerm;42622;49.972;8.452;2022-07-23T08:43:33;45.10;40.23;66.75;;
56745;Laerm;42622;49.972;8.452;2022-07-23T08:46:03;44.19;41.06;59.64;;
56745;Laerm;42622;49.972;8.452;2022-07-23T08:48:34;45.70;40.98;68.24;;
56745;Laerm;42622;49.972;8.452;2022-07-23T08:51:05;44.86;39.46;64.58;;
56745;Laerm;42622;49.972;8.452;2022-07-23T08:53:34;47.81;39.21;70.42;;
56745;Laerm;42622;49.972;8.452;2022-07-23T08:56:03;48.07;42.65;68.43;;
56745;Laerm;42622;49.972;8.452;2022-07-23T08:58:31;44.95;40.43;66.06;;
56745;Laerm;42622;49.972;8.452;2022-07-23T09:00:58;44.76;40.13;60.95;;
56745;Laerm;42622;49.972;8.452;2022-07-23T09:03:29;45.63;41.06;68.56;;
56745;Laerm;42622;49.972;8.452;2022-07-23T09:05:58;45.50;41.55;64.43;;
56745;Laerm;42622;49.972;8.452;2022-07-23T09:08:37;45.83;40.71;69.50;;
56745;Laerm;42622;49.972;8.452;2022-07-23T09:11:11;48.45;43.39;63.73;;
56745;Laerm;42622;49.972;8.452;2022-07-23T09:13:57;47.33;41.30;62.20;;
56745;Laerm;42622;49.972;8.452;2022-07-23T09:16:31;46.86;40.89;64.46;;
56745;Laerm;42622;49.972;8.452;2022-07-23T09:19:03;46.95;40.13;65.62;;
56745;Laerm;42622;49.972;8.452;2022-07-23T09:21:38;46.97;40.89;62.81;;
56745;Laerm;42622;49.972;8.452;2022-07-23T09:24:09;44.69;40.23;60.59;;
56745;Laerm;42622;49.972;8.452;2022-07-23T09:26:47;47.77;41.82;60.02;;
56745;Laerm;42622;49.972;8.452;2022-07-23T09:29:24;47.45;41.61;62.21;;
56745;Laerm;42622;49.972;8.452;2022-07-23T09:31:59;47.07;41.30;62.65;;
56745;Laerm;42622;49.972;8.452;2022-07-23T09:34:31;48.28;40.63;64.11;;
56745;Laerm;42622;49.972;8.452;2022-07-23T09:37:17;46.68;41.06;63.25;;
56745;Laerm;42622;49.972;8.452;2022-07-23T09:39:47;47.70;41.46;70.57;;
56745;Laerm;42622;49.972;8.452;2022-07-23T09:42:20;46.51;41.14;63.18;;
56745;Laerm;42622;49.972;8.452;2022-07-23T09:44:57;56.08;41.38;72.67;;
56745;Laerm;42622;49.972;8.452;2022-07-23T09:47:31;55.90;42.16;72.98;;
56745;Laerm;42622;49.972;8.452;2022-07-23T09:50:10;54.54;41.22;70.16;;
56745;Laerm;42622;49.972;8.452;2022-07-23T09:52:49;46.48;41.38;57.94;;
56745;Laerm;42622;49.972;8.452;2022-07-23T09:55:18;57.66;41.06;75.23;;
56745;Laerm;42622;49.972;8.452;2022-07-23T09:57:47;58.14;42.22;72.42;;
56745;Laerm;42622;49.972;8.452;2022-07-23T10:00:20;46.25;42.22;64.61;;
56745;Laerm;42622;49.972;8.452;2022-07-23T10:02:49;44.81;41.22;62.58;;
56745;Laerm;42622;49.972;8.452;2022-07-23T10:05:15;45.53;40.23;61.70;;
56745;Laerm;42622;49.972;8.452;2022-07-23T10:07:42;55.09;40.80;71.84;;
56745;Laerm;42622;49.972;8.452;2022-07-23T10:10:11;42.80;40.23;57.40;;
56745;Laerm;42622;49.972;8.452;2022-07-23T10:12:38;43.08;39.58;56.32;;
56745;Laerm;42622;49.972;8.452;2022-07-23T10:15:07;41.96;39.46;52.06;;
56745;Laerm;42622;49.972;8.452;2022-07-23T10:17:35;44.77;39.58;66.04;;
56745;Laerm;42622;49.972;8.452;2022-07-23T10:20:04;45.74;39.70;66.31;;
56745;Laerm;42622;49.972;8.452;2022-07-23T10:22:42;43.90;40.13;60.97;;
56745;Laerm;42622;49.972;8.452;2022-07-23T10:26:09;44.13;39.08;62.08;;
56745;Laerm;42622;49.972;8.452;2022-07-23T10:29:31;43.55;40.63;58.31;;
56745;Laerm;42622;49.972;8.452;2022-07-23T10:32:42;51.00;40.62;74.85;;
56745;Laerm;42622;49.972;8.452;2022-07-23T10:35:31;43.64;40.03;59.89;;
56745;Laerm;42622;49.972;8.452;2022-07-23T10:38:20;44.08;40.43;54.96;;
56745;Laerm;42622;49.972;8.452;2022-07-23T10:41:05;53.20;41.22;71.96;;
56745;Laerm;42622;49.972;8.452;2022-07-23T10:43:32;54.51;41.61;72.25;;
56745;Laerm;42622;49.972;8.452;2022-07-23T10:47:02;44.71;39.21;61.43;;
56745;Laerm;42622;49.972;8.452;2022-07-23T10:49:45;43.65;40.23;61.17;;
56745;Laerm;42622;49.972;8.452;2022-07-23T10:54:47;49.95;39.70;61.26;;
56745;Laerm;42622;49.972;8.452;2022-07-23T10:57:28;54.51;40.33;67.60;;
56745;Laerm;42622;49.972;8.452;2022-07-23T11:02:30;50.61;40.33;64.67;;
56745;Laerm;42622;49.972;8.452;2022-07-23T11:05:20;50.46;40.63;67.90;;
56745;Laerm;42622;49.972;8.452;2022-07-23T11:11:07;48.31;42.09;64.54;;
56745;Laerm;42622;49.972;8.452;2022-07-23T11:13:41;47.73;42.41;63.68;;
56745;Laerm;42622;49.972;8.452;2022-07-23T11:16:21;52.75;44.23;67.03;;
56745;Laerm;42622;49.972;8.452;2022-07-23T11:24:04;54.00;41.38;69.51;;
56745;Laerm;42622;49.972;8.452;2022-07-23T11:34:55;55.57;39.81;70.89;;
56745;Laerm;42622;49.972;8.452;2022-07-23T11:37:40;51.24;40.33;69.70;;
56745;Laerm;42622;49.972;8.452;2022-07-23T11:40:12;55.02;41.82;75.69;;
56745;Laerm;42622;49.972;8.452;2022-07-23T11:42:56;56.23;42.35;72.05;;
56745;Laerm;42622;49.972;8.452;2022-07-23T11:45:30;52.08;42.76;67.35;;
56745;Laerm;42622;49.972;8.452;2022-07-23T11:47:56;48.54;41.46;66.61;;
56745;Laerm;42622;49.972;8.452;2022-07-23T11:50:24;46.54;40.62;72.08;;
56745;Laerm;42622;49.972;8.452;2022-07-23T11:52:53;46.83;41.22;58.46;;
56745;Laerm;42622;49.972;8.452;2022-07-23T11:55:19;45.60;40.62;64.78;;
56745;Laerm;42622;49.972;8.452;2022-07-23T11:57:46;48.97;40.33;65.25;;
56745;Laerm;42622;49.972;8.452;2022-07-23T12:00:18;56.71;41.22;73.21;;
56745;Laerm;42622;49.972;8.452;2022-07-23T12:07:55;59.10;41.38;75.21;;
56745;Laerm;42622;49.972;8.452;2022-07-23T12:10:33;55.80;42.22;71.83;;
56745;Laerm;42622;49.972;8.452;2022-07-23T12:13:11;44.79;41.68;68.05;;
56745;Laerm;42622;49.972;8.452;2022-07-23T12:15:56;56.53;40.03;72.79;;
56745;Laerm;42622;49.972;8.452;2022-07-23T12:18:26;43.58;40.71;57.53;;
56745;Laerm;42622;49.972;8.452;2022-07-23T12:20:57;44.44;40.53;67.41;;
56745;Laerm;42622;49.972;8.452;2022-07-23T12:23:28;44.12;40.53;55.99;;
56745;Laerm;42622;49.972;8.452;2022-07-23T12:25:54;45.59;41.89;62.24;;
56745;Laerm;42622;49.972;8.452;2022-07-23T12:28:32;57.59;39.81;72.98;;
56745;Laerm;42622;49.972;8.452;2022-07-23T12:30:59;44.55;40.71;59.59;;
56745;Laerm;42622;49.972;8.452;2022-07-23T12:33:31;44.83;42.35;61.15;;
56745;Laerm;42622;49.972;8.452;2022-07-23T12:36:03;56.66;42.98;69.79;;
56745;Laerm;42622;49.972;8.452;2022-07-23T12:38:42;62.66;42.03;76.16;;
56745;Laerm;42622;49.972;8.452;2022-07-23T12:41:10;60.31;42.59;77.15;;
56745;Laerm;42622;49.972;8.452;2022-07-23T12:43:45;61.99;42.09;76.16;;
56745;Laerm;42622;49.972;8.452;2022-07-23T12:46:19;44.56;41.14;56.70;;
56745;Laerm;42622;49.972;8.452;2022-07-23T12:51:25;44.98;38.67;62.54;;
56745;Laerm;42622;49.972;8.452;2022-07-23T12:53:56;54.62;41.75;73.81;;
56745;Laerm;42622;49.972;8.452;2022-07-23T12:56:31;44.07;40.80;54.12;;
56745;Laerm;42622;49.972;8.452;2022-07-23T12:59:06;52.90;41.61;69.29;;
56745;Laerm;42622;49.972;8.452;2022-07-23T13:01:42;54.58;41.89;71.68;;
56745;Laerm;42622;49.972;8.452;2022-07-23T13:04:18;44.88;41.30;60.12;;
56745;Laerm;42622;49.972;8.452;2022-07-23T13:06:53;46.57;40.62;67.04;;
56745;Laerm;42622;49.972;8.452;2022-07-23T13:09:24;44.24;40.98;55.28;;
56745;Laerm;42622;49.972;8.452;2022-07-23T13:11:53;44.94;41.06;62.55;;
56745;Laerm;42622;49.972;8.452;2022-07-23T13:14:21;44.08;39.34;64.99;;
56745;Laerm;42622;49.972;8.452;2022-07-23T13:16:50;54.58;40.53;72.71;;
56745;Laerm;42622;49.972;8.452;2022-07-23T13:19:18;43.85;40.53;56.12;;
56745;Laerm;42622;49.972;8.452;2022-07-23T13:21:45;46.18;40.23;64.97;;
56745;Laerm;42622;49.972;8.452;2022-07-23T13:24:13;44.83;40.23;61.34;;
56745;Laerm;42622;49.972;8.452;2022-07-23T13:26:40;44.92;39.92;60.89;;
56745;Laerm;42622;49.972;8.452;2022-07-23T13:29:07;47.42;40.23;64.07;;
56745;Laerm;42622;49.972;8.452;2022-07-23T13:31:33;44.89;39.81;62.48;;
56745;Laerm;42622;49.972;8.452;2022-07-23T13:34:00;45.82;41.38;64.70;;
56745;Laerm;42622;49.972;8.452;2022-07-23T13:36:26;54.29;41.46;71.01;;
56745;Laerm;42622;49.972;8.452;2022-07-23T13:38:52;53.09;40.36;67.25;;
56745;Laerm;42622;49.972;8.452;2022-07-23T13:41:18;48.00;39.21;74.43;;
56745;Laerm;42622;49.972;8.452;2022-07-23T13:43:45;45.50;38.05;59.83;;
56745;Laerm;42622;49.972;8.452;2022-07-23T13:46:11;54.03;40.71;75.13;;
56745;Laerm;42622;49.972;8.452;2022-07-23T13:48:36;53.23;38.95;69.53;;
56745;Laerm;42622;49.972;8.452;2022-07-23T13:51:03;56.36;39.81;72.96;;
56745;Laerm;42622;49.972;8.452;2022-07-23T13:53:28;49.72;38.95;66.77;;
56745;Laerm;42622;49.972;8.452;2022-07-23T13:55:54;50.68;40.03;76.25;;
56745;Laerm;42622;49.972;8.452;2022-07-23T13:58:21;48.02;39.21;72.87;;
56745;Laerm;42622;49.972;8.452;2022-07-23T14:00:52;49.97;41.46;62.81;;
56745;Laerm;42622;49.972;8.452;2022-07-23T14:03:22;55.10;41.14;69.15;;
56745;Laerm;42622;49.972;8.452;2022-07-23T14:05:49;49.28;40.71;71.66;;
56745;Laerm;42622;49.972;8.452;2022-07-23T14:08:15;45.34;38.67;66.30;;
56745;Laerm;42622;49.972;8.452;2022-07-23T14:10:41;51.81;40.13;74.34;;
56745;Laerm;42622;49.972;8.452;2022-07-23T14:13:06;46.60;41.61;65.87;;
56745;Laerm;42622;49.972;8.452;2022-07-23T14:15:33;47.93;39.81;63.60;;
56745;Laerm;42622;49.972;8.452;2022-07-23T14:17:59;48.71;43.09;67.89;;
56745;Laerm;42622;49.972;8.452;2022-07-23T14:20:25;50.10;41.30;71.90;;
56745;Laerm;42622;49.972;8.452;2022-07-23T14:22:52;46.48;40.98;65.22;;
56745;Laerm;42622;49.972;8.452;2022-07-23T14:25:21;44.95;41.46;60.31;;
56745;Laerm;42622;49.972;8.452;2022-07-23T14:27:47;46.64;40.33;64.94;;
56745;Laerm;42622;49.972;8.452;2022-07-23T14:30:13;55.40;41.22;69.91;;
56745;Laerm;42622;49.972;8.452;2022-07-23T14:32:40;52.00;41.53;65.57;;
56745;Laerm;42622;49.972;8.452;2022-07-23T14:35:07;51.21;40.13;65.85;;
56745;Laerm;42622;49.972;8.452;2022-07-23T14:37:33;56.63;42.35;70.63;;
56745;Laerm;42622;49.972;8.452;2022-07-23T14:39:59;56.29;41.89;71.21;;
56745;Laerm;42622;49.972;8.452;2022-07-23T14:42:25;45.32;41.33;59.99;;